Time;durP1;ratioP1;P1;durP2;ratioP2;P2;SDS_P1;SDS_P2;PMS_P1;PMS_P2;Temp;Humidity;BMP_temperature;BMP_pressure;BME280_temperature;BME280_humidity;BME280_pressure;Samples;Min_cycle;Max_cycle;Signal;HPM_P1;HPM_P2
2023/03/02 00:01:07;;;;;;;21.30;8.30;;;;;;;-0.92;80.01;102104.16;4988035;28;20125;-74
2023/03/02 00:03:34;;;;;;;16.75;7.40;;;;;;;-0.96;79.90;102093.28;4993112;28;21960;-74
2023/03/02 00:06:00;;;;;;;18.20;7.80;;;;;;;-0.99;79.79;102091.63;4988565;28;20036;-74
2023/03/02 00:08:27;;;;;;;15.45;7.38;;;;;;;-1.01;80.09;102098.50;4988352;28;20408;-74
2023/03/02 00:10:53;;;;;;;20.33;8.20;;;;;;;-1.04;80.23;102100.31;4972374;28;20041;-74
2023/03/02 00:13:19;;;;;;;15.10;7.28;;;;;;;-1.07;80.24;102096.16;4989855;28;20117;-74
2023/03/02 00:15:45;;;;;;;18.23;7.57;;;;;;;-1.08;80.45;102093.66;4994517;28;20053;-74
2023/03/02 00:18:10;;;;;;;18.67;8.20;;;;;;;-1.11;80.67;102094.59;5005118;28;20037;-74
2023/03/02 00:20:36;;;;;;;19.30;8.35;;;;;;;-1.12;81.00;102097.19;4986815;28;20052;-74
2023/03/02 00:23:01;;;;;;;17.95;7.75;;;;;;;-1.14;81.13;102088.78;4985161;28;20081;-74
2023/03/02 00:25:27;;;;;;;21.45;8.85;;;;;;;-1.09;81.31;102090.28;4984923;28;20085;-74
2023/03/02 00:27:53;;;;;;;16.73;8.07;;;;;;;-1.07;80.78;102085.97;5001053;28;20034;-74
2023/03/02 00:30:18;;;;;;;15.60;7.45;;;;;;;-1.12;80.69;102084.47;4969899;28;20035;-74
2023/03/02 00:32:44;;;;;;;17.70;7.65;;;;;;;-1.18;80.71;102086.31;4988591;28;20025;-73
2023/03/02 00:35:10;;;;;;;16.13;7.40;;;;;;;-1.20;81.14;102084.69;5002057;28;20030;-74
2023/03/02 00:37:36;;;;;;;19.88;7.93;;;;;;;-1.24;81.31;102083.97;4982120;28;20034;-74
2023/03/02 00:40:08;;;;;;;16.55;8.15;;;;;;;-1.27;81.67;102084.06;4988170;28;20036;-74
2023/03/02 00:42:35;;;;;;;14.77;7.90;;;;;;;-1.30;81.71;102089.25;4968565;28;20034;-73
2023/03/02 00:45:00;;;;;;;15.75;7.28;;;;;;;-1.33;81.98;102080.88;4981823;28;20030;-74
2023/03/02 00:47:28;;;;;;;16.73;7.78;;;;;;;-1.35;82.23;102078.38;4994089;28;20502;-74
2023/03/02 00:49:55;;;;;;;16.85;8.27;;;;;;;-1.39;82.78;102079.34;4971372;28;20572;-73
2023/03/02 00:52:20;;;;;;;14.90;6.90;;;;;;;-1.42;82.46;102075.19;4986279;28;20037;-73
2023/03/02 00:54:46;;;;;;;18.77;7.82;;;;;;;-1.40;83.12;102083.59;4990008;28;20037;-74
2023/03/02 00:57:13;;;;;;;22.83;8.88;;;;;;;-1.41;83.05;102084.50;4989592;28;20114;-73
2023/03/02 00:59:39;;;;;;;22.25;7.65;;;;;;;-1.43;83.36;102081.16;4988336;28;20025;-73
2023/03/02 01:02:16;;;;;;;26.73;7.85;;;;;;;-1.41;83.20;102076.84;4973502;28;20399;-73
2023/03/02 01:04:43;;;;;;;17.15;7.72;;;;;;;-1.44;83.41;102081.19;4988983;28;21820;-72
2023/03/02 01:07:14;;;;;;;22.85;7.82;;;;;;;-1.47;83.31;102079.59;4987106;28;20057;-73
2023/03/02 01:09:41;;;;;;;17.58;9.20;;;;;;;-1.50;83.62;102069.50;4985629;28;20038;-73
2023/03/02 01:12:09;;;;;;;21.38;7.95;;;;;;;-1.51;83.65;102067.81;4981113;28;20542;-73
2023/03/02 01:14:37;;;;;;;20.50;8.02;;;;;;;-1.51;83.51;102069.53;5005645;28;20030;-73
2023/03/02 01:17:04;;;;;;;19.00;7.38;;;;;;;-1.52;83.92;102060.25;4984942;28;20408;-73
2023/03/02 01:19:30;;;;;;;23.77;8.82;;;;;;;-1.54;83.54;102062.00;4967016;28;20124;-72
2023/03/02 01:21:55;;;;;;;21.40;8.43;;;;;;;-1.57;83.79;102060.38;5002807;28;20040;-73
2023/03/02 01:24:21;;;;;;;16.23;7.60;;;;;;;-1.61;83.63;102056.28;4988553;28;20026;-74
2023/03/02 01:26:46;;;;;;;14.38;7.43;;;;;;;-1.62;83.90;102059.69;4974856;28;20504;-73
2023/03/02 01:29:12;;;;;;;21.33;8.52;;;;;;;-1.66;83.92;102056.41;5010699;28;20069;-73
2023/03/02 01:31:38;;;;;;;18.90;7.70;;;;;;;-1.68;84.04;102057.34;4987043;28;20038;-73
2023/03/02 01:34:03;;;;;;;18.23;7.85;;;;;;;-1.70;84.19;102048.91;4973176;28;20104;-73
2023/03/02 01:36:29;;;;;;;18.17;7.88;;;;;;;-1.74;84.20;102045.63;4976690;28;20095;-73
2023/03/02 01:38:54;;;;;;;16.80;7.65;;;;;;;-1.75;84.36;102046.53;4986496;28;20025;-72
2023/03/02 01:41:20;;;;;;;16.30;7.40;;;;;;;-1.77;84.46;102038.94;4995515;28;20034;-73
2023/03/02 01:43:45;;;;;;;18.15;7.28;;;;;;;-1.77;84.39;102036.41;4992728;28;20407;-73
2023/03/02 01:46:16;;;;;;;20.25;8.60;;;;;;;-1.79;84.72;102038.16;4989926;28;20034;-73
2023/03/02 01:48:55;;;;;;;15.20;7.68;;;;;;;-1.80;84.63;102028.84;4990231;28;20026;-73
2023/03/02 01:51:33;;;;;;;21.30;8.80;;;;;;;-1.82;85.04;102029.78;4985070;28;20041;-73
2023/03/02 01:54:07;;;;;;;13.75;7.07;;;;;;;-1.84;84.98;102037.44;4988825;28;20072;-73
2023/03/02 01:56:38;;;;;;;23.23;8.95;;;;;;;-1.87;85.07;102029.91;4968248;28;20418;-73
2023/03/02 01:59:13;;;;;;;14.93;7.00;;;;;;;-1.87;84.92;102036.72;5006493;28;20030;-73
2023/03/02 02:01:41;;;;;;;19.15;8.15;;;;;;;-1.90;85.14;102027.47;4974849;28;20117;-73
2023/03/02 02:04:08;;;;;;;14.60;7.03;;;;;;;-1.91;85.20;102024.97;4985152;28;20038;-73
2023/03/02 02:06:39;;;;;;;19.58;8.57;;;;;;;-1.92;85.06;102028.38;4979476;28;20054;-73
2023/03/02 02:09:09;;;;;;;15.27;7.38;;;;;;;-1.93;85.16;102032.63;4974270;28;20029;-73
2023/03/02 02:11:35;;;;;;;20.77;9.45;;;;;;;-1.90;85.25;102022.38;4990947;28;20037;-73
2023/03/02 02:14:02;;;;;;;28.02;10.77;;;;;;;-1.88;84.71;102027.44;4985611;28;20033;-73
2023/03/02 02:16:30;;;;;;;28.17;10.43;;;;;;;-1.88;84.81;102020.63;4984316;28;20045;-73
2023/03/02 02:18:56;;;;;;;27.38;11.43;;;;;;;-1.86;84.62;102025.66;4972287;28;20025;-73
2023/03/02 02:21:24;;;;;;;34.63;12.60;;;;;;;-1.85;84.49;102014.59;4986796;28;20056;-73
2023/03/02 02:24:23;;;;;;;24.58;11.18;;;;;;;-1.86;84.55;102018.88;5007179;28;20672;-73
2023/03/02 02:26:53;;;;;;;25.02;10.40;;;;;;;-1.80;84.28;102013.59;4980499;28;20038;-73
2023/03/02 02:29:24;;;;;;;23.77;9.52;;;;;;;-1.77;84.29;102018.59;5001214;28;20037;-73
2023/03/02 02:31:59;;;;;;;24.20;9.45;;;;;;;-1.78;84.48;102016.91;5003764;28;20065;-73
2023/03/02 02:34:28;;;;;;;22.35;9.43;;;;;;;-1.81;84.57;102011.94;5000372;28;20492;-73
2023/03/02 02:37:02;;;;;;;23.23;9.55;;;;;;;-1.78;84.37;102013.53;4980741;28;20026;-73
2023/03/02 02:39:32;;;;;;;24.77;8.93;;;;;;;-1.80;84.35;102008.50;4998812;28;20117;-73
2023/03/02 02:42:03;;;;;;;22.67;9.40;;;;;;;-1.85;84.59;102004.44;4989283;28;20125;-73
2023/03/02 02:44:30;;;;;;;20.92;9.65;;;;;;;-1.89;84.62;102015.56;4983912;28;20023;-73
2023/03/02 02:46:56;;;;;;;24.70;10.43;;;;;;;-1.95;85.06;102016.59;5004469;28;20037;-73
2023/03/02 02:49:27;;;;;;;22.40;8.95;;;;;;;-2.00;84.84;102016.75;5009602;28;20041;-73
2023/03/02 02:51:52;;;;;;;20.80;8.95;;;;;;;-2.04;85.44;102021.94;4996537;28;20128;-73
2023/03/02 02:54:20;;;;;;;22.35;8.55;;;;;;;-2.07;85.76;102014.41;4991049;28;20128;-73
2023/03/02 02:56:48;;;;;;;23.70;9.32;;;;;;;-2.11;86.04;102013.69;4987112;28;20097;-74
2023/03/02 02:59:24;;;;;;;19.13;8.90;;;;;;;-2.16;86.31;102008.72;4986280;28;20033;-74
2023/03/02 03:01:50;;;;;;;20.80;9.20;;;;;;;-2.18;86.52;102012.19;4997862;28;20117;-73
2023/03/02 03:04:19;;;;;;;21.45;9.27;;;;;;;-2.21;86.55;102008.00;5005050;28;20068;-73
2023/03/02 03:07:05;;;;;;;18.90;9.45;;;;;;;-2.23;86.88;102011.47;4986348;28;20042;-74
2023/03/02 03:09:32;;;;;;;22.42;9.38;;;;;;;-2.25;86.93;102013.22;4987480;28;20041;-73
2023/03/02 03:12:03;;;;;;;19.10;9.45;;;;;;;-2.28;87.24;102011.63;5002354;28;20455;-73
2023/03/02 03:14:33;;;;;;;24.80;9.80;;;;;;;-2.30;87.46;102013.34;4995486;28;20030;-73
2023/03/02 03:16:59;;;;;;;22.42;8.80;;;;;;;-2.33;87.85;102013.44;5003204;28;20503;-74
2023/03/02 03:19:32;;;;;;;23.45;8.73;;;;;;;-2.37;87.77;102011.88;5004506;28;20040;-73
2023/03/02 03:22:00;;;;;;;20.60;10.27;;;;;;;-2.40;88.09;102011.94;5007479;28;20563;-73
2023/03/02 03:24:31;;;;;;;24.45;8.18;;;;;;;-2.44;88.05;102005.28;4989955;28;20026;-75
2023/03/02 03:26:58;;;;;;;19.27;9.02;;;;;;;-2.45;88.46;102006.16;4988647;28;20121;-73
2023/03/02 03:29:25;;;;;;;20.10;8.57;;;;;;;-2.49;88.63;102004.59;5003318;28;20396;-73
2023/03/02 03:31:56;;;;;;;21.30;9.30;;;;;;;-2.51;88.86;102004.63;5010459;28;20460;-73
2023/03/02 03:34:23;;;;;;;21.05;9.70;;;;;;;-2.51;88.80;102013.97;4996486;28;20171;-73
2023/03/02 03:36:49;;;;;;;22.27;9.20;;;;;;;-2.53;88.96;102008.91;5007830;28;20037;-73
2023/03/02 03:39:16;;;;;;;22.27;10.18;;;;;;;-2.53;89.29;102014.00;5002908;28;20030;-73
2023/03/02 03:41:42;;;;;;;23.85;9.13;;;;;;;-2.53;89.39;102010.63;4983385;28;20522;-73
2023/03/02 03:44:09;;;;;;;20.75;9.80;;;;;;;-2.55;89.24;102008.13;4991939;28;20069;-73
2023/03/02 03:46:36;;;;;;;19.05;8.35;;;;;;;-2.55;89.23;102015.75;4992866;28;20041;-73
2023/03/02 03:49:02;;;;;;;24.08;9.90;;;;;;;-2.55;89.01;102011.50;5012583;28;20111;-73
2023/03/02 03:51:28;;;;;;;22.02;10.43;;;;;;;-2.57;89.24;102007.34;4983074;28;20042;-73
2023/03/02 03:54:00;;;;;;;22.65;9.82;;;;;;;-2.51;88.92;102008.88;5007806;28;20033;-73
2023/03/02 03:56:33;;;;;;;24.30;10.70;;;;;;;-2.54;88.75;102012.34;4989270;28;20145;-73
2023/03/02 03:59:06;;;;;;;25.77;9.38;;;;;;;-2.57;88.62;102010.69;4989841;28;20041;-73
2023/03/02 04:01:44;;;;;;;27.30;10.70;;;;;;;-2.59;88.80;102007.38;5000359;28;20058;-73
2023/03/02 04:04:13;;;;;;;27.45;11.07;;;;;;;-2.61;88.57;102006.59;4995253;28;20030;-73
2023/03/02 04:06:39;;;;;;;25.40;9.65;;;;;;;-2.65;88.64;102009.25;4999521;28;20064;-73
2023/03/02 04:09:05;;;;;;;25.10;10.15;;;;;;;-2.68;88.59;102007.63;4995888;28;20148;-72
2023/03/02 04:11:37;;;;;;;21.75;10.20;;;;;;;-2.70;88.66;102006.84;4985414;28;20035;-73
2023/03/02 04:14:04;;;;;;;22.13;9.75;;;;;;;-2.72;88.71;102005.22;4993109;28;20041;-73
2023/03/02 04:16:31;;;;;;;21.00;10.38;;;;;;;-2.74;89.01;102006.06;4983914;28;20033;-73
2023/03/02 04:18:57;;;;;;;24.33;10.05;;;;;;;-2.75;89.48;102011.19;4989183;28;20152;-72
2023/03/02 04:21:23;;;;;;;26.60;10.77;;;;;;;-2.79;89.48;102009.59;4987874;28;20034;-73
2023/03/02 04:23:49;;;;;;;25.52;9.60;;;;;;;-2.80;89.90;102011.31;4974478;28;20142;-73
2023/03/02 04:26:15;;;;;;;24.73;9.63;;;;;;;-2.77;90.03;102007.84;5001274;28;20077;-73
2023/03/02 04:28:40;;;;;;;23.60;9.73;;;;;;;-2.79;90.15;102009.59;5000491;28;20022;-72
2023/03/02 04:31:06;;;;;;;22.40;9.07;;;;;;;-2.80;90.09;102007.97;4986702;28;20038;-73
2023/03/02 04:33:31;;;;;;;25.65;9.63;;;;;;;-2.84;89.95;102007.19;5002027;28;20045;-72
2023/03/02 04:35:57;;;;;;;28.52;9.93;;;;;;;-2.84;90.01;102001.31;4986188;28;20135;-72
2023/03/02 04:38:23;;;;;;;26.75;9.45;;;;;;;-2.85;89.84;102008.06;4989723;28;20040;-72
2023/03/02 04:40:48;;;;;;;23.27;9.32;;;;;;;-2.85;89.83;102007.25;4971676;28;20038;-72
2023/03/02 04:43:14;;;;;;;22.05;10.25;;;;;;;-2.84;89.88;102004.66;5003455;28;20542;-73
2023/03/02 04:45:39;;;;;;;25.45;9.88;;;;;;;-2.85;89.47;101997.91;5003250;28;20065;-73
2023/03/02 04:48:06;;;;;;;28.80;10.52;;;;;;;-2.80;89.66;102005.41;4985131;28;20404;-73
2023/03/02 04:50:32;;;;;;;26.38;10.73;;;;;;;-2.79;89.52;102005.38;4969901;28;20042;-73
2023/03/02 04:52:58;;;;;;;24.85;10.13;;;;;;;-2.80;89.28;102001.16;4984059;28;20498;-72
2023/03/02 04:55:26;;;;;;;25.33;10.60;;;;;;;-2.81;89.23;101993.59;4983652;28;20035;-72
2023/03/02 04:57:51;;;;;;;30.73;11.35;;;;;;;-2.83;89.28;101993.63;5006239;28;20116;-72
2023/03/02 05:00:19;;;;;;;24.48;10.60;;;;;;;-2.84;89.37;101991.97;5006548;28;20095;-72
2023/03/02 05:02:45;;;;;;;28.77;10.73;;;;;;;-2.83;89.17;101991.06;4998542;28;20025;-72
2023/03/02 05:05:20;;;;;;;27.58;11.55;;;;;;;-2.81;89.80;101986.78;4968563;28;20036;-73
2023/03/02 05:07:46;;;;;;;25.25;10.73;;;;;;;-2.79;89.89;101987.63;5005225;28;20105;-72
2023/03/02 05:10:13;;;;;;;25.52;9.20;;;;;;;-2.72;90.01;101988.25;5004435;28;20613;-72
2023/03/02 05:12:56;;;;;;;22.40;9.75;;;;;;;-2.63;88.73;101990.56;4990096;28;20033;-73
2023/03/02 05:15:26;;;;;;;22.92;9.45;;;;;;;-2.64;88.65;101993.13;4985990;28;20869;-73
2023/03/02 05:17:52;;;;;;;28.17;10.18;;;;;;;-2.64;88.39;101988.88;4977257;28;20041;-73
2023/03/02 05:20:18;;;;;;;23.65;9.68;;;;;;;-2.67;88.25;101999.13;4986467;28;20497;-72
2023/03/02 05:22:44;;;;;;;28.23;9.40;;;;;;;-2.68;88.00;101994.91;4987075;28;20100;-73
2023/03/02 05:25:10;;;;;;;23.17;8.68;;;;;;;-2.72;88.09;101990.81;5005253;28;20042;-72
2023/03/02 05:27:35;;;;;;;23.17;8.93;;;;;;;-2.76;88.33;101991.75;5008185;28;20037;-73
2023/03/02 05:30:03;;;;;;;21.60;9.63;;;;;;;-2.64;87.91;101978.72;5000690;28;20042;-72
2023/03/02 05:32:29;;;;;;;20.58;8.82;;;;;;;-2.65;87.76;101984.69;4989076;28;20034;-72
2023/03/02 05:34:54;;;;;;;19.15;8.70;;;;;;;-2.67;87.55;101986.44;5003737;28;20476;-72
2023/03/02 05:37:20;;;;;;;16.98;7.45;;;;;;;-2.72;88.06;101987.44;4991986;28;20504;-73
2023/03/02 05:39:45;;;;;;;23.50;8.05;;;;;;;-2.79;87.91;101995.22;5005877;28;20026;-73
2023/03/02 05:42:11;;;;;;;24.80;8.43;;;;;;;-2.79;88.12;101991.84;5004700;28;20045;-72
2023/03/02 05:44:36;;;;;;;19.77;8.23;;;;;;;-2.83;88.23;101990.25;5000485;28;20038;-72
2023/03/02 05:47:02;;;;;;;19.13;7.95;;;;;;;-2.85;88.42;101992.81;4971245;28;20092;-72
2023/03/02 05:49:27;;;;;;;17.25;7.45;;;;;;;-2.88;88.59;101992.06;5013691;23;20040;-69
2023/03/02 05:51:53;;;;;;;17.10;8.45;;;;;;;-2.90;88.58;101991.28;5041910;28;20643;-68
2023/03/02 05:54:18;;;;;;;24.17;7.95;;;;;;;-2.91;88.62;101984.56;5024814;28;20033;-69
2023/03/02 05:56:44;;;;;;;21.25;8.43;;;;;;;-2.86;88.59;101991.19;5030486;28;20490;-69
2023/03/02 05:59:09;;;;;;;16.40;8.00;;;;;;;-2.87;88.44;101978.53;5043553;28;20036;-68
2023/03/02 06:01:35;;;;;;;17.75;7.97;;;;;;;-2.75;87.97;101991.72;5025875;28;20110;-69
2023/03/02 06:04:01;;;;;;;20.02;7.95;;;;;;;-2.79;87.94;101990.16;5019039;28;20115;-69
2023/03/02 06:06:27;;;;;;;19.33;8.70;;;;;;;-2.83;88.00;101988.53;5008916;28;20084;-69
2023/03/02 06:08:53;;;;;;;20.77;8.93;;;;;;;-2.87;87.87;102002.19;5043414;28;20040;-69
2023/03/02 06:11:18;;;;;;;20.23;8.65;;;;;;;-2.85;87.79;101995.38;5042154;28;20037;-69
2023/03/02 06:13:43;;;;;;;17.58;8.38;;;;;;;-2.86;88.02;101995.41;5044698;28;20029;-68
2023/03/02 06:16:09;;;;;;;18.65;9.38;;;;;;;-2.84;87.65;101991.16;5046931;28;20041;-69
2023/03/02 06:18:35;;;;;;;18.35;8.40;;;;;;;-2.86;87.57;102001.34;5026159;28;20033;-68
2023/03/02 06:21:01;;;;;;;21.45;8.45;;;;;;;-2.89;87.60;102006.47;5042237;28;20120;-69
2023/03/02 06:23:27;;;;;;;17.17;8.27;;;;;;;-2.89;87.95;102008.19;5026701;28;20043;-69
2023/03/02 06:25:53;;;;;;;18.52;7.43;;;;;;;-2.92;88.03;102008.25;5022268;28;20033;-69
2023/03/02 06:28:19;;;;;;;16.80;8.57;;;;;;;-2.90;88.10;102004.84;5038387;28;20043;-69
2023/03/02 06:30:49;;;;;;;20.23;8.10;;;;;;;-2.90;87.89;102012.44;5042706;28;20044;-71
2023/03/02 06:33:16;;;;;;;19.85;8.68;;;;;;;-2.92;87.91;102008.25;5024608;28;20775;-69
2023/03/02 06:35:42;;;;;;;15.73;7.53;;;;;;;-2.79;87.18;102009.59;5025690;28;20488;-69
2023/03/02 06:38:08;;;;;;;20.50;8.27;;;;;;;-2.78;86.94;102004.50;5042045;28;20033;-69
2023/03/02 06:40:33;;;;;;;16.73;7.55;;;;;;;-2.69;86.99;101995.81;5025548;28;20033;-69
2023/03/02 06:43:00;;;;;;;19.92;8.23;;;;;;;-2.53;86.56;102003.84;5025056;28;20037;-69
2023/03/02 06:45:26;;;;;;;19.20;7.80;;;;;;;-2.48;86.18;102009.63;5026391;28;20048;-69
2023/03/02 06:47:52;;;;;;;21.65;9.45;;;;;;;-2.44;86.01;102002.75;5028450;28;20024;-69
2023/03/02 06:50:18;;;;;;;19.25;9.18;;;;;;;-2.44;85.78;102006.13;5026491;28;20071;-69
2023/03/02 06:52:44;;;;;;;19.90;7.80;;;;;;;-2.41;85.72;101992.50;5027059;28;20135;-69
2023/03/02 06:55:10;;;;;;;21.60;8.57;;;;;;;-2.30;85.36;101997.28;5029912;28;20036;-69
2023/03/02 06:57:35;;;;;;;17.65;7.25;;;;;;;-2.28;85.05;102005.69;5009044;28;20495;-69
2023/03/02 07:00:08;;;;;;;19.20;7.93;;;;;;;-2.26;85.07;102006.47;5045922;28;20056;-69
2023/03/02 07:02:34;;;;;;;;;;;;;;;-2.18;84.82;102012.19;5031743;28;20036;-69
2023/03/02 07:04:59;;;;;;;17.95;7.65;;;;;;;-1.96;83.84;102002.19;5030872;28;19909;-72
2023/03/02 07:07:25;;;;;;;19.92;7.57;;;;;;;-1.90;83.51;102003.72;5029444;28;20045;-69
2023/03/02 07:09:50;;;;;;;17.30;7.28;;;;;;;-1.85;83.69;102012.88;5033934;28;20033;-70
2023/03/02 07:12:16;;;;;;;19.88;7.78;;;;;;;-1.79;82.73;102009.31;5006086;28;20045;-70
2023/03/02 07:14:41;;;;;;;20.45;7.45;;;;;;;-1.67;81.99;102014.06;5013136;28;20084;-70
2023/03/02 07:17:07;;;;;;;17.02;7.28;;;;;;;-1.52;80.98;102011.91;5039208;28;20044;-70
2023/03/02 07:19:33;;;;;;;18.50;7.80;;;;;;;-1.51;80.96;102011.84;5044783;28;20040;-70
2023/03/02 07:21:58;;;;;;;14.07;7.32;;;;;;;-1.38;80.50;102009.75;5012010;28;20034;-69
2023/03/02 07:24:24;;;;;;;19.60;8.32;;;;;;;-1.31;80.93;102005.31;5045539;28;20060;-70
2023/03/02 07:26:49;;;;;;;15.90;7.70;;;;;;;-1.13;80.04;102006.41;5030050;28;20515;-70
2023/03/02 07:29:15;;;;;;;18.40;7.15;;;;;;;-0.75;78.38;102004.25;5002270;28;20421;-70
2023/03/02 07:31:43;;;;;;;27.00;12.38;;;;;;;-0.35;76.46;101995.22;5032668;28;20523;-70
2023/03/02 07:34:08;;;;;;;22.40;7.63;;;;;;;0.14;74.13;101995.94;5019859;28;20029;-71
2023/03/02 07:36:34;;;;;;;22.15;9.32;;;;;;;0.56;73.16;101993.38;5044577;28;20098;-70
2023/03/02 07:39:01;;;;;;;21.40;8.90;;;;;;;1.00;71.19;101995.03;5010532;28;20037;-71
2023/03/02 07:41:27;;;;;;;33.45;13.23;;;;;;;1.23;69.16;102000.88;5026365;28;20083;-71
2023/03/02 07:43:52;;;;;;;16.90;7.55;;;;;;;1.51;68.25;101997.94;5019437;28;20028;-71
2023/03/02 07:46:17;;;;;;;16.92;7.40;;;;;;;1.71;67.09;102000.44;5026924;28;20099;-71
2023/03/02 07:48:43;;;;;;;14.20;7.50;;;;;;;1.98;65.44;102004.34;5007927;28;20037;-72
2023/03/02 07:51:08;;;;;;;17.33;6.82;;;;;;;2.17;64.63;102007.72;5044561;28;20067;-71
2023/03/02 07:53:34;;;;;;;22.15;7.15;;;;;;;2.20;63.80;102001.63;5022752;28;20037;-72
2023/03/02 07:56:05;;;;;;;15.93;7.10;;;;;;;2.37;63.41;102017.00;5037500;28;20096;-71
2023/03/02 07:58:30;;;;;;;14.35;7.25;;;;;;;2.55;61.74;102017.06;5026660;28;20040;-71
2023/03/02 08:00:56;;;;;;;18.77;7.60;;;;;;;2.81;61.57;102026.03;5045176;28;20041;-72
2023/03/02 08:03:21;;;;;;;15.85;6.70;;;;;;;2.78;61.13;102021.03;5022939;28;20040;-72
2023/03/02 08:05:47;;;;;;;17.02;6.80;;;;;;;2.96;61.12;102024.41;5010821;28;20043;-72
2023/03/02 08:08:12;;;;;;;16.02;6.97;;;;;;;3.37;59.78;102019.78;5013278;28;20064;-71
2023/03/02 08:10:38;;;;;;;14.57;6.82;;;;;;;3.69;58.94;102022.38;5049281;28;20037;-72
2023/03/02 08:13:04;;;;;;;12.85;6.75;;;;;;;3.69;57.55;102019.81;5015192;28;20102;-72
2023/03/02 08:15:29;;;;;;;13.60;6.05;;;;;;;3.83;56.93;102019.91;5026568;28;20052;-72
2023/03/02 08:17:55;;;;;;;18.40;6.47;;;;;;;3.91;57.35;102019.50;5029510;28;20021;-72
2023/03/02 08:20:20;;;;;;;17.92;7.00;;;;;;;3.99;56.34;102019.88;5044589;28;20091;-72
2023/03/02 08:22:46;;;;;;;20.00;6.70;;;;;;;4.17;55.67;102014.69;5010208;28;20161;-72
2023/03/02 08:25:11;;;;;;;13.27;7.18;;;;;;;4.44;55.84;102020.81;5024137;28;20060;-72
2023/03/02 08:27:39;;;;;;;15.98;6.68;;;;;;;4.48;54.65;102016.34;5027144;28;20037;-72
2023/03/02 08:30:06;;;;;;;18.15;7.03;;;;;;;4.70;53.83;102015.16;5045531;28;20033;-73
2023/03/02 08:32:32;;;;;;;13.48;6.28;;;;;;;4.54;53.94;102012.59;5041477;28;20032;-72
2023/03/02 08:34:58;;;;;;;17.05;7.40;;;;;;;4.67;54.03;102018.69;5029141;28;20372;-72
2023/03/02 08:37:24;;;;;;;18.02;7.57;;;;;;;4.52;53.56;102014.44;5040585;28;20174;-72
2023/03/02 08:39:50;;;;;;;19.50;10.80;;;;;;;5.16;53.06;102012.44;5023202;28;20033;-73
2023/03/02 08:42:16;;;;;;;15.80;7.30;;;;;;;5.42;51.98;102016.84;5046434;28;20091;-73
2023/03/02 08:44:42;;;;;;;16.95;6.80;;;;;;;5.02;51.08;102010.69;5029420;28;20033;-73
2023/03/02 08:47:08;;;;;;;14.82;6.35;;;;;;;5.04;52.19;102004.53;5044408;28;20577;-72
2023/03/02 08:49:33;;;;;;;17.23;6.63;;;;;;;5.14;52.29;101997.13;5012374;28;20025;-72
2023/03/02 08:51:59;;;;;;;12.77;6.93;;;;;;;5.35;51.42;101996.75;5023879;28;20102;-74
2023/03/02 08:54:25;;;;;;;14.90;5.90;;;;;;;5.51;51.15;101994.09;5048413;28;20124;-73
2023/03/02 08:56:51;;;;;;;12.88;6.72;;;;;;;5.66;50.63;101996.53;5017415;28;20076;-73
2023/03/02 08:59:17;;;;;;;18.48;7.10;;;;;;;5.39;50.05;102001.63;5028108;28;20130;-73
2023/03/02 09:01:43;;;;;;;13.70;7.53;;;;;;;5.45;51.28;102003.00;5048113;28;20047;-73
2023/03/02 09:04:09;;;;;;;14.13;6.65;;;;;;;5.56;49.51;101992.06;5019766;28;20083;-74
2023/03/02 09:06:37;;;;;;;18.33;7.15;;;;;;;5.47;50.60;101999.41;5047514;28;20036;-73
2023/03/02 09:09:03;;;;;;;13.32;6.32;;;;;;;5.76;50.05;101993.38;5032237;28;20168;-72
2023/03/02 09:11:29;;;;;;;14.18;6.60;;;;;;;5.58;50.27;101993.59;5008687;28;20041;-73
2023/03/02 09:13:55;;;;;;;16.30;6.97;;;;;;;5.71;50.62;101998.84;5045649;28;20041;-73
2023/03/02 09:16:23;;;;;;;19.20;7.13;;;;;;;5.34;50.62;101985.63;5029328;28;20040;-73
2023/03/02 09:18:48;;;;;;;12.07;7.00;;;;;;;5.47;51.07;101980.56;5032136;28;21928;-73
2023/03/02 09:21:14;;;;;;;17.05;6.72;;;;;;;5.39;50.63;101982.78;5024469;28;20123;-73
2023/03/02 09:23:40;;;;;;;16.63;8.07;;;;;;;5.46;50.95;101987.47;5029504;28;20032;-73
2023/03/02 09:26:06;;;;;;;14.43;6.85;;;;;;;5.44;51.79;101978.19;5026827;28;20124;-73
2023/03/02 09:28:32;;;;;;;20.50;8.82;;;;;;;5.21;51.37;101980.41;5026946;28;20032;-72
2023/03/02 09:31:00;;;;;;;19.50;9.60;;;;;;;5.21;52.58;101975.25;5027096;28;20060;-73
2023/03/02 09:33:26;;;;;;;15.60;6.78;;;;;;;5.09;51.62;101975.19;5028403;28;20029;-72
2023/03/02 09:35:52;;;;;;;16.55;7.30;;;;;;;4.98;53.21;101973.25;5039924;28;20407;-73
2023/03/02 09:38:17;;;;;;;16.80;7.45;;;;;;;4.52;52.58;101981.88;5027942;28;20025;-73
2023/03/02 09:40:52;;;;;;;16.13;8.43;;;;;;;4.38;53.39;101967.25;5023586;28;20426;-72
2023/03/02 09:43:32;;;;;;;22.13;6.80;;;;;;;4.57;52.49;101974.72;5024038;28;20448;-72
2023/03/02 09:46:07;;;;;;;20.20;7.45;;;;;;;4.35;53.19;101975.16;5022151;28;20068;-72
2023/03/02 09:48:48;;;;;;;19.27;7.60;;;;;;;4.02;53.31;101968.41;5042143;28;20032;-72
2023/03/02 09:51:30;;;;;;;15.77;7.72;;;;;;;4.33;54.06;101976.94;5020015;28;20079;-72
2023/03/02 09:54:09;;;;;;;15.70;7.40;;;;;;;4.53;54.29;101972.44;5045041;28;20024;-72
2023/03/02 09:56:41;;;;;;;20.65;9.88;;;;;;;4.66;52.78;101978.53;5042536;28;20032;-72
2023/03/02 09:59:21;;;;;;;27.75;12.02;;;;;;;4.76;53.73;101966.78;5023556;28;20533;-72
2023/03/02 10:02:00;;;;;;;17.77;8.10;;;;;;;4.82;54.36;101968.16;5022413;28;20120;-73
2023/03/02 10:04:49;;;;;;;19.77;10.23;;;;;;;4.84;53.37;101964.59;5039696;28;20033;-72
2023/03/02 10:07:14;;;;;;;16.80;8.45;;;;;;;4.90;53.52;101966.00;5011600;28;20057;-72
2023/03/02 10:09:41;;;;;;;19.50;6.93;;;;;;;4.94;52.23;101970.03;5022238;28;20121;-72
2023/03/02 10:12:26;;;;;;;18.25;8.10;;;;;;;4.96;51.19;101972.50;5020581;28;20071;-72
2023/03/02 10:14:59;;;;;;;18.95;7.25;;;;;;;4.81;52.58;101975.06;5019038;28;20044;-72
2023/03/02 10:18:02;;;;;;;17.08;7.75;;;;;;;4.86;53.19;101969.66;5019851;28;20574;-71
2023/03/02 10:20:56;;;;;;;17.35;7.93;;;;;;;4.88;53.08;101973.78;5040111;28;20040;-72
2023/03/02 10:23:43;;;;;;;19.23;8.70;;;;;;;4.83;52.21;101960.38;5018589;28;20048;-72
2023/03/02 10:26:37;;;;;;;24.70;10.10;;;;;;;4.93;53.77;101965.78;5035489;28;20051;-72
2023/03/02 10:29:09;;;;;;;21.70;10.40;;;;;;;5.02;52.83;101960.09;5010253;28;20037;-72
2023/03/02 10:31:38;;;;;;;29.95;8.10;;;;;;;5.21;52.99;101970.09;5025370;28;20499;-71
2023/03/02 10:34:04;;;;;;;17.95;8.05;;;;;;;5.07;52.53;101962.41;5024670;28;20037;-71
2023/03/02 10:36:36;;;;;;;14.75;7.53;;;;;;;5.16;53.12;101956.72;5028589;28;20037;-71
2023/03/02 10:39:05;;;;;;;15.90;7.73;;;;;;;5.30;52.25;101955.06;5045020;28;20419;-72
2023/03/02 10:41:39;;;;;;;16.40;8.00;;;;;;;5.26;51.51;101947.53;5027967;28;20123;-72
2023/03/02 10:44:30;;;;;;;19.58;8.23;;;;;;;5.34;52.50;101944.47;5041565;28;20568;-72
2023/03/02 10:46:56;;;;;;;18.40;8.27;;;;;;;5.45;51.04;101947.22;5019468;28;20552;-72
2023/03/02 10:49:27;;;;;;;17.30;7.82;;;;;;;5.53;50.84;101949.31;5041635;28;20115;-72
2023/03/02 10:52:13;;;;;;;22.27;7.50;;;;;;;5.61;51.05;101936.81;5029421;28;20055;-72
2023/03/02 10:54:39;;;;;;;15.20;7.40;;;;;;;5.60;49.96;101935.16;5037932;28;20075;-72
2023/03/02 10:57:33;;;;;;;18.67;8.98;;;;;;;5.74;50.19;101936.03;5025295;28;20033;-71
2023/03/02 11:00:02;;;;;;;23.35;10.10;;;;;;;5.77;50.86;101941.00;5041837;28;20032;-71
2023/03/02 11:02:28;;;;;;;22.30;9.35;;;;;;;5.76;51.22;101935.00;5044887;28;20469;-72
2023/03/02 11:04:57;;;;;;;24.02;7.93;;;;;;;5.72;50.66;101941.28;5049890;28;20503;-72
2023/03/02 11:07:27;;;;;;;17.65;7.53;;;;;;;5.91;50.92;101928.06;5025511;28;20048;-72
2023/03/02 11:10:04;;;;;;;15.63;7.68;;;;;;;6.01;50.21;101931.75;5031170;28;20523;-71
2023/03/02 11:12:31;;;;;;;17.75;7.03;;;;;;;6.09;49.02;101938.16;5013749;28;20120;-71
2023/03/02 11:15:13;;;;;;;19.63;7.80;;;;;;;6.09;49.78;101933.00;5041583;28;20082;-71
2023/03/02 11:17:40;;;;;;;17.27;8.43;;;;;;;6.11;49.89;101937.13;5042701;28;20044;-72
2023/03/02 11:20:14;;;;;;;19.60;7.88;;;;;;;6.14;49.81;101936.94;5023784;28;20051;-71
2023/03/02 11:22:53;;;;;;;18.33;7.55;;;;;;;6.24;48.27;101930.25;5042333;28;20063;-72
2023/03/02 11:25:30;;;;;;;16.92;7.13;;;;;;;6.23;49.92;101925.19;5029928;28;20519;-72